Cottonwood, South Dakota
Current Conditions -  °F | °C
As of 11:55 PM on Sunday 21 Dec 2014 (Local Time) from KPHP Reporting Station
Light Rain Light Rain  
Wind Chill: 32°   Ceiling: 7500
Heat Index: 40°   Visibility: 10mi
Dew Point: 37°   Wind: 14mph
Humidity: 89%   Direction: 300°WNW
Pressure: 29.47"   Gusts: NA
Location:  44.0813°N, 102.067°W
Report Text: KPHP 220655Z AUTO 30012KT 10SM -RA FEW021 SCT041 OVC075 04/03 A2947 RMK AO2 SLP984 P0002 T00440028 401061094
Loading
Personal Weather Stations






























Interactive Weather Map New forecast layout! Learn more

10-Day Weather Forecast

Advertisements
Track Severe Weather on mobile